RJA132 LGAV-OJAI
Flight info
| Callsign | RJA132 |
|---|---|
| Flight time | 1h 40m |
| Altitude | 37000 |
| Route | KEA UN132 MADEX UM601 ASTIS UL52 VAXOS UN134 VANZA DCT PIKOG L609 VOLFO N134 RALNA |
| Aircraft | A320/M-SDE3FGHIRWY/LB1 |
Departure
| Time | 2026-05-05 10:28 |
|---|---|
| Airport | Athens Eleftherios Venizelos International Airport (LGAV) |
Arrival
| Time | 2026-05-05 12:08 |
|---|---|
| Airport | Queen Alia International Airport (OJAI) |
| Time | Latitude | Longitude | Altitude | Speed | Heading |
|---|---|---|---|---|---|
| 2026-05-05 10:24 | 37.92885 | 23.94351 | 322 ft | 0 kts | 128° |
| 2026-05-05 10:24 | 37.92879 | 23.94360 | 322 ft | 3 kts | 128° |
| 2026-05-05 10:24 | 37.92860 | 23.94391 | 322 ft | 6 kts | 128° |
| 2026-05-05 10:24 | 37.92829 | 23.94443 | 322 ft | 9 kts | 127° |
| 2026-05-05 10:25 | 37.92790 | 23.94459 | 322 ft | 6 kts | 211° |
| 2026-05-05 10:25 | 37.92746 | 23.94421 | 322 ft | 9 kts | 216° |
| 2026-05-05 10:25 | 37.92684 | 23.94363 | 322 ft | 13 kts | 217° |
| 2026-05-05 10:25 | 37.92604 | 23.94289 | 322 ft | 16 kts | 216° |
| 2026-05-05 10:26 | 37.92508 | 23.94196 | 322 ft | 19 kts | 217° |
| 2026-05-05 10:26 | 37.92451 | 23.94147 | 322 ft | 5 kts | 191° |
| 2026-05-05 10:26 | 37.92423 | 23.94173 | 322 ft | 6 kts | 122° |
| 2026-05-05 10:26 | 37.92410 | 23.94234 | 322 ft | 8 kts | 94° |
| 2026-05-05 10:27 | 37.92412 | 23.94317 | 322 ft | 11 kts | 84° |
| 2026-05-05 10:27 | 37.92425 | 23.94381 | 322 ft | 12 kts | 65° |
| 2026-05-05 10:27 | 37.92471 | 23.94445 | 322 ft | 9 kts | 35° |
| 2026-05-05 10:27 | 37.92556 | 23.94521 | 322 ft | 36 kts | 37° |
| 2026-05-05 10:28 | 37.93158 | 23.95088 | 323 ft | 123 kts | 38° |
| 2026-05-05 10:28 | 37.93977 | 23.95859 | 406 ft | 161 kts | 39° |
| 2026-05-05 10:28 | 37.94911 | 23.96748 | 814 ft | 176 kts | 39° |
| 2026-05-05 10:28 | 37.95548 | 23.97365 | 1287 ft | 173 kts | 40° |
| 2026-05-05 10:29 | 37.96296 | 23.98492 | 2129 ft | 160 kts | 65° |
| 2026-05-05 10:29 | 37.96510 | 23.99896 | 2493 ft | 171 kts | 97° |
| 2026-05-05 10:29 | 37.96008 | 24.01284 | 2843 ft | 187 kts | 128° |
| 2026-05-05 10:29 | 37.94993 | 24.02510 | 3278 ft | 204 kts | 143° |
| 2026-05-05 10:30 | 37.93710 | 24.03432 | 3665 ft | 225 kts | 152° |
| 2026-05-05 10:30 | 37.92260 | 24.04348 | 4184 ft | 239 kts | 152° |
| 2026-05-05 10:30 | 37.90742 | 24.05377 | 4773 ft | 253 kts | 149° |
| 2026-05-05 10:30 | 37.89113 | 24.06554 | 5406 ft | 266 kts | 149° |
| 2026-05-05 10:31 | 37.87455 | 24.07740 | 6029 ft | 278 kts | 149° |
| 2026-05-05 10:31 | 37.85741 | 24.08934 | 6809 ft | 283 kts | 150° |
| 2026-05-05 10:31 | 37.84003 | 24.10136 | 7594 ft | 287 kts | 149° |
| 2026-05-05 10:31 | 37.82239 | 24.11367 | 8369 ft | 291 kts | 149° |
| 2026-05-05 10:32 | 37.80420 | 24.12643 | 9133 ft | 296 kts | 149° |
| 2026-05-05 10:32 | 37.78634 | 24.13900 | 9854 ft | 300 kts | 149° |
| 2026-05-05 10:32 | 37.76696 | 24.15255 | 10602 ft | 305 kts | 149° |
| 2026-05-05 10:32 | 37.74800 | 24.16579 | 11116 ft | 317 kts | 149° |
| 2026-05-05 10:33 | 37.72826 | 24.17954 | 11548 ft | 330 kts | 149° |
| 2026-05-05 10:33 | 37.70774 | 24.19386 | 11947 ft | 343 kts | 150° |
| 2026-05-05 10:33 | 37.68640 | 24.20872 | 12310 ft | 357 kts | 150° |
| 2026-05-05 10:33 | 37.66421 | 24.22418 | 12649 ft | 370 kts | 150° |
| 2026-05-05 10:34 | 37.64154 | 24.24015 | 13151 ft | 376 kts | 148° |
| 2026-05-05 10:34 | 37.62127 | 24.26085 | 13717 ft | 378 kts | 130° |
| 2026-05-05 10:34 | 37.60626 | 24.28820 | 14283 ft | 379 kts | 118° |
| 2026-05-05 10:34 | 37.59347 | 24.31750 | 14802 ft | 384 kts | 116° |
| 2026-05-05 10:35 | 37.58096 | 24.34744 | 15340 ft | 387 kts | 116° |
| 2026-05-05 10:35 | 37.56802 | 24.37750 | 15855 ft | 392 kts | 117° |
| 2026-05-05 10:35 | 37.55442 | 24.40755 | 16368 ft | 396 kts | 118° |
| 2026-05-05 10:35 | 37.54036 | 24.43759 | 16867 ft | 400 kts | 119° |
| 2026-05-05 10:36 | 37.52612 | 24.46783 | 17358 ft | 404 kts | 119° |
| 2026-05-05 10:36 | 37.51180 | 24.49857 | 17851 ft | 407 kts | 119° |
| 2026-05-05 10:36 | 37.49748 | 24.52960 | 18317 ft | 411 kts | 119° |
| 2026-05-05 10:36 | 37.48312 | 24.56092 | 18802 ft | 414 kts | 118° |
| 2026-05-05 10:37 | 37.46861 | 24.59248 | 19267 ft | 418 kts | 119° |
| 2026-05-05 10:37 | 37.45377 | 24.62466 | 19742 ft | 421 kts | 119° |
| 2026-05-05 10:37 | 37.43895 | 24.65660 | 20193 ft | 424 kts | 119° |
| 2026-05-05 10:37 | 37.42403 | 24.68875 | 20642 ft | 427 kts | 119° |
| 2026-05-05 10:38 | 37.40902 | 24.72111 | 21088 ft | 430 kts | 119° |
| 2026-05-05 10:38 | 37.39391 | 24.75374 | 21503 ft | 433 kts | 119° |
| 2026-05-05 10:38 | 37.37868 | 24.78652 | 21922 ft | 436 kts | 119° |
| 2026-05-05 10:38 | 37.36328 | 24.81962 | 22334 ft | 439 kts | 119° |
| 2026-05-05 10:39 | 37.34784 | 24.85279 | 22727 ft | 441 kts | 119° |
| 2026-05-05 10:39 | 37.33229 | 24.88617 | 23119 ft | 444 kts | 119° |
| 2026-05-05 10:39 | 37.31663 | 24.91972 | 23501 ft | 446 kts | 119° |
| 2026-05-05 10:39 | 37.30084 | 24.95354 | 23852 ft | 449 kts | 119° |
| 2026-05-05 10:40 | 37.28500 | 24.98749 | 24208 ft | 452 kts | 119° |
| 2026-05-05 10:40 | 37.26899 | 25.02167 | 24566 ft | 454 kts | 119° |
| 2026-05-05 10:40 | 37.25294 | 25.05590 | 24921 ft | 456 kts | 119° |
| 2026-05-05 10:40 | 37.23678 | 25.09033 | 25243 ft | 459 kts | 119° |
| 2026-05-05 10:41 | 37.22076 | 25.12450 | 25571 ft | 461 kts | 119° |
| 2026-05-05 10:41 | 37.20442 | 25.15933 | 25883 ft | 463 kts | 120° |
| 2026-05-05 10:41 | 37.18801 | 25.19420 | 26207 ft | 465 kts | 120° |
| 2026-05-05 10:41 | 37.17151 | 25.22923 | 26520 ft | 468 kts | 120° |
| 2026-05-05 10:42 | 37.13822 | 25.29980 | 27125 ft | 472 kts | 120° |
| 2026-05-05 10:42 | 37.12149 | 25.33521 | 27418 ft | 474 kts | 120° |
| 2026-05-05 10:42 | 37.10464 | 25.37087 | 27708 ft | 476 kts | 120° |
| 2026-05-05 10:43 | 37.08770 | 25.40650 | 27991 ft | 478 kts | 120° |
| 2026-05-05 10:43 | 37.07067 | 25.44245 | 28265 ft | 480 kts | 120° |
| 2026-05-05 10:43 | 37.05371 | 25.47843 | 28544 ft | 481 kts | 120° |
| 2026-05-05 10:43 | 37.03659 | 25.51455 | 28812 ft | 483 kts | 120° |
| 2026-05-05 10:44 | 37.01930 | 25.55078 | 29078 ft | 485 kts | 120° |
| 2026-05-05 10:44 | 37.00202 | 25.58701 | 29344 ft | 487 kts | 120° |
| 2026-05-05 10:44 | 36.98464 | 25.62357 | 29578 ft | 489 kts | 120° |
| 2026-05-05 10:44 | 36.96710 | 25.66034 | 29865 ft | 490 kts | 120° |
| 2026-05-05 10:45 | 36.94968 | 25.69682 | 30188 ft | 490 kts | 120° |
| 2026-05-05 10:45 | 36.93215 | 25.73341 | 30490 ft | 490 kts | 120° |
| 2026-05-05 10:45 | 36.91466 | 25.76995 | 30796 ft | 490 kts | 120° |
| 2026-05-05 10:45 | 36.89718 | 25.80648 | 31129 ft | 489 kts | 120° |
| 2026-05-05 10:46 | 36.87968 | 25.84299 | 31400 ft | 490 kts | 120° |
| 2026-05-05 10:46 | 36.86212 | 25.87955 | 31707 ft | 490 kts | 120° |
| 2026-05-05 10:46 | 36.84432 | 25.91659 | 31960 ft | 491 kts | 119° |
| 2026-05-05 10:46 | 36.83242 | 25.94134 | 32170 ft | 491 kts | 119° |
| 2026-05-05 10:47 | 36.81464 | 25.97823 | 32461 ft | 491 kts | 120° |
| 2026-05-05 10:47 | 36.79713 | 26.01437 | 32725 ft | 491 kts | 120° |
| 2026-05-05 10:47 | 36.77939 | 26.05064 | 33085 ft | 489 kts | 120° |
| 2026-05-05 10:47 | 36.76177 | 26.08719 | 33291 ft | 491 kts | 119° |
| 2026-05-05 10:48 | 36.74432 | 26.12380 | 33565 ft | 490 kts | 119° |
| 2026-05-05 10:48 | 36.72683 | 26.16027 | 33794 ft | 491 kts | 119° |
| 2026-05-05 10:48 | 36.70909 | 26.19668 | 34036 ft | 491 kts | 119° |
| 2026-05-05 10:48 | 36.69127 | 26.23323 | 34272 ft | 492 kts | 119° |
| 2026-05-05 10:49 | 36.67346 | 26.26969 | 34531 ft | 491 kts | 119° |
| 2026-05-05 10:49 | 36.65572 | 26.30616 | 34772 ft | 491 kts | 119° |
| 2026-05-05 10:49 | 36.63808 | 26.34256 | 35012 ft | 491 kts | 119° |
| 2026-05-05 10:50 | 36.60282 | 26.41512 | 35104 ft | 491 kts | 119° |
| 2026-05-05 10:50 | 36.56729 | 26.48765 | 35103 ft | 491 kts | 119° |
| 2026-05-05 10:51 | 36.53177 | 26.56013 | 35105 ft | 491 kts | 120° |
| 2026-05-05 10:51 | 36.49626 | 26.63256 | 35103 ft | 491 kts | 120° |
| 2026-05-05 10:52 | 36.46065 | 26.70494 | 35112 ft | 490 kts | 120° |
| 2026-05-05 10:52 | 36.42503 | 26.77703 | 35108 ft | 489 kts | 120° |
| 2026-05-05 10:53 | 36.38951 | 26.84902 | 35099 ft | 488 kts | 120° |
| 2026-05-05 10:53 | 36.35405 | 26.92088 | 35079 ft | 488 kts | 120° |
| 2026-05-05 10:54 | 36.31833 | 26.99254 | 35054 ft | 487 kts | 121° |
| 2026-05-05 10:54 | 36.28285 | 27.06396 | 35028 ft | 486 kts | 121° |
| 2026-05-05 10:55 | 36.24737 | 27.13539 | 35017 ft | 486 kts | 121° |
| 2026-05-05 10:55 | 36.21182 | 27.20652 | 35037 ft | 485 kts | 121° |
| 2026-05-05 10:56 | 36.17624 | 27.27763 | 35021 ft | 485 kts | 121° |
| 2026-05-05 10:56 | 36.14067 | 27.34866 | 35037 ft | 485 kts | 121° |
| 2026-05-05 10:57 | 36.10507 | 27.41943 | 35072 ft | 483 kts | 121° |
| 2026-05-05 10:57 | 36.06955 | 27.48998 | 35065 ft | 482 kts | 121° |
| 2026-05-05 10:58 | 36.03273 | 27.56310 | 35037 ft | 482 kts | 121° |
| 2026-05-05 10:58 | 35.99866 | 27.63054 | 35009 ft | 481 kts | 122° |
| 2026-05-05 10:59 | 35.96286 | 27.70097 | 34976 ft | 480 kts | 122° |
| 2026-05-05 10:59 | 35.92727 | 27.77140 | 34976 ft | 480 kts | 122° |
| 2026-05-05 11:00 | 35.89158 | 27.84150 | 34975 ft | 481 kts | 122° |
| 2026-05-05 11:00 | 35.85573 | 27.91153 | 34975 ft | 482 kts | 122° |
| 2026-05-05 11:01 | 35.82006 | 27.98156 | 35014 ft | 482 kts | 122° |
| 2026-05-05 11:01 | 35.78466 | 28.05102 | 35046 ft | 482 kts | 122° |
| 2026-05-05 11:02 | 35.74875 | 28.12081 | 35020 ft | 482 kts | 122° |
| 2026-05-05 11:02 | 35.71289 | 28.19056 | 35004 ft | 482 kts | 122° |
| 2026-05-05 11:03 | 35.67703 | 28.26026 | 34984 ft | 482 kts | 122° |
| 2026-05-05 11:03 | 35.64107 | 28.32992 | 34963 ft | 483 kts | 122° |
| 2026-05-05 11:04 | 35.60503 | 28.39972 | 34963 ft | 483 kts | 122° |
| 2026-05-05 11:04 | 35.56686 | 28.47326 | 34963 ft | 484 kts | 122° |
| 2026-05-05 11:05 | 35.53065 | 28.54306 | 34959 ft | 485 kts | 122° |
| 2026-05-05 11:05 | 35.49407 | 28.61348 | 34962 ft | 486 kts | 122° |
| 2026-05-05 11:06 | 35.46333 | 28.67256 | 34955 ft | 488 kts | 122° |
| 2026-05-05 11:06 | 35.42661 | 28.74273 | 34959 ft | 489 kts | 123° |
| 2026-05-05 11:07 | 35.38973 | 28.81325 | 34963 ft | 491 kts | 123° |
| 2026-05-05 11:07 | 35.35249 | 28.88406 | 34987 ft | 491 kts | 123° |
| 2026-05-05 11:08 | 35.31554 | 28.95467 | 35001 ft | 492 kts | 122° |
| 2026-05-05 11:08 | 35.27852 | 29.02520 | 35010 ft | 493 kts | 123° |
| 2026-05-05 11:09 | 35.24131 | 29.09566 | 35001 ft | 493 kts | 123° |
| 2026-05-05 11:09 | 35.20393 | 29.16609 | 34966 ft | 493 kts | 123° |
| 2026-05-05 11:10 | 35.16677 | 29.23665 | 34942 ft | 494 kts | 123° |
| 2026-05-05 11:10 | 35.12941 | 29.30711 | 34937 ft | 494 kts | 123° |
| 2026-05-05 11:11 | 35.09184 | 29.37766 | 34935 ft | 496 kts | 123° |
| 2026-05-05 11:11 | 35.05402 | 29.44815 | 34979 ft | 496 kts | 123° |
| 2026-05-05 11:12 | 35.01666 | 29.51875 | 35033 ft | 495 kts | 123° |
| 2026-05-05 11:12 | 34.97907 | 29.58910 | 35031 ft | 495 kts | 123° |
| 2026-05-05 11:13 | 34.94127 | 29.65938 | 35028 ft | 495 kts | 123° |
| 2026-05-05 11:13 | 34.90357 | 29.72960 | 35015 ft | 494 kts | 123° |
| 2026-05-05 11:14 | 34.86619 | 29.79907 | 34990 ft | 492 kts | 124° |
| 2026-05-05 11:14 | 34.82866 | 29.86877 | 34956 ft | 491 kts | 124° |
| 2026-05-05 11:15 | 34.79111 | 29.93830 | 34940 ft | 491 kts | 124° |
| 2026-05-05 11:15 | 34.75368 | 30.00791 | 34939 ft | 492 kts | 122° |
| 2026-05-05 11:16 | 34.71757 | 30.07876 | 34936 ft | 494 kts | 122° |
| 2026-05-05 11:16 | 34.68157 | 30.15019 | 34936 ft | 496 kts | 122° |
| 2026-05-05 11:17 | 34.64518 | 30.22155 | 34935 ft | 498 kts | 122° |
| 2026-05-05 11:17 | 34.60848 | 30.29314 | 34932 ft | 500 kts | 122° |
| 2026-05-05 11:18 | 34.57177 | 30.36502 | 34968 ft | 501 kts | 122° |
| 2026-05-05 11:18 | 34.53510 | 30.43661 | 34998 ft | 501 kts | 123° |
| 2026-05-05 11:19 | 34.49758 | 30.50953 | 35049 ft | 501 kts | 123° |
| 2026-05-05 11:19 | 34.46104 | 30.58062 | 35052 ft | 501 kts | 123° |
| 2026-05-05 11:20 | 34.42490 | 30.65068 | 35049 ft | 501 kts | 123° |
| 2026-05-05 11:20 | 34.38701 | 30.72407 | 35047 ft | 500 kts | 123° |
| 2026-05-05 11:21 | 34.35005 | 30.79519 | 35021 ft | 499 kts | 123° |
| 2026-05-05 11:21 | 34.31361 | 30.86641 | 34999 ft | 497 kts | 123° |
| 2026-05-05 11:22 | 34.27645 | 30.93695 | 34972 ft | 497 kts | 123° |
| 2026-05-05 11:22 | 34.23978 | 31.00785 | 34972 ft | 497 kts | 123° |
| 2026-05-05 11:23 | 34.20894 | 31.06713 | 34973 ft | 497 kts | 123° |
| 2026-05-05 11:23 | 34.17172 | 31.13779 | 34968 ft | 498 kts | 123° |
| 2026-05-05 11:24 | 34.13484 | 31.20826 | 34973 ft | 500 kts | 124° |
| 2026-05-05 11:24 | 34.09741 | 31.27960 | 34969 ft | 501 kts | 123° |
| 2026-05-05 11:25 | 34.06030 | 31.35031 | 34986 ft | 502 kts | 123° |
| 2026-05-05 11:25 | 34.02289 | 31.42147 | 35057 ft | 502 kts | 124° |
| 2026-05-05 11:26 | 33.98533 | 31.49259 | 35059 ft | 502 kts | 124° |
| 2026-05-05 11:26 | 33.94784 | 31.56344 | 35053 ft | 501 kts | 124° |
| 2026-05-05 11:27 | 33.91036 | 31.63410 | 35030 ft | 500 kts | 124° |
| 2026-05-05 11:27 | 33.87290 | 31.70469 | 35014 ft | 499 kts | 124° |
| 2026-05-05 11:28 | 33.83553 | 31.77496 | 34989 ft | 498 kts | 124° |
| 2026-05-05 11:28 | 33.79810 | 31.84519 | 34974 ft | 498 kts | 124° |
| 2026-05-05 11:29 | 33.76089 | 31.91491 | 34978 ft | 499 kts | 124° |
| 2026-05-05 11:29 | 33.72323 | 31.98523 | 34974 ft | 500 kts | 124° |
| 2026-05-05 11:30 | 33.68555 | 32.05544 | 34977 ft | 501 kts | 125° |
| 2026-05-05 11:30 | 33.64776 | 32.12587 | 34988 ft | 502 kts | 125° |
| 2026-05-05 11:31 | 33.60970 | 32.19637 | 35064 ft | 501 kts | 125° |
| 2026-05-05 11:31 | 33.57200 | 32.26666 | 35052 ft | 502 kts | 125° |
| 2026-05-05 11:32 | 33.53395 | 32.33671 | 35021 ft | 502 kts | 126° |
| 2026-05-05 11:32 | 33.49600 | 32.40717 | 35002 ft | 501 kts | 126° |
| 2026-05-05 11:33 | 33.45806 | 32.47715 | 34980 ft | 501 kts | 126° |
| 2026-05-05 11:33 | 33.41996 | 32.54706 | 34960 ft | 501 kts | 126° |
| 2026-05-05 11:34 | 33.38830 | 32.60520 | 34941 ft | 501 kts | 126° |
| 2026-05-05 11:34 | 33.35026 | 32.67502 | 34946 ft | 502 kts | 126° |
| 2026-05-05 11:35 | 33.31206 | 32.74502 | 34948 ft | 503 kts | 127° |
| 2026-05-05 11:35 | 33.27362 | 32.81521 | 34950 ft | 505 kts | 127° |
| 2026-05-05 11:36 | 33.23501 | 32.88558 | 34950 ft | 507 kts | 127° |
| 2026-05-05 11:36 | 33.19634 | 32.95612 | 34999 ft | 507 kts | 127° |
| 2026-05-05 11:37 | 33.15736 | 33.02629 | 35041 ft | 507 kts | 127° |
| 2026-05-05 11:37 | 33.11868 | 33.09682 | 35035 ft | 507 kts | 127° |
| 2026-05-05 11:38 | 33.08196 | 33.16347 | 35041 ft | 505 kts | 127° |
| 2026-05-05 11:38 | 33.04318 | 33.23340 | 35033 ft | 504 kts | 128° |
| 2026-05-05 11:39 | 33.00464 | 33.30291 | 35011 ft | 502 kts | 127° |
| 2026-05-05 11:39 | 32.96613 | 33.37216 | 34973 ft | 500 kts | 128° |
| 2026-05-05 11:40 | 32.92766 | 33.44124 | 34962 ft | 500 kts | 128° |
| 2026-05-05 11:40 | 32.88781 | 33.51268 | 34961 ft | 501 kts | 128° |
| 2026-05-05 11:41 | 32.84888 | 33.58209 | 34965 ft | 502 kts | 128° |
| 2026-05-05 11:41 | 32.81247 | 33.64091 | 34975 ft | 497 kts | 138° |
| 2026-05-05 11:42 | 32.76425 | 33.70105 | 34989 ft | 496 kts | 141° |
| 2026-05-05 11:42 | 32.71551 | 33.75959 | 34989 ft | 498 kts | 141° |
| 2026-05-05 11:43 | 32.66731 | 33.81904 | 35033 ft | 500 kts | 140° |
| 2026-05-05 11:43 | 32.61955 | 33.87824 | 35089 ft | 499 kts | 140° |
| 2026-05-05 11:44 | 32.57087 | 33.93787 | 35083 ft | 499 kts | 141° |
| 2026-05-05 11:44 | 32.52261 | 33.99713 | 35086 ft | 500 kts | 140° |
| 2026-05-05 11:45 | 32.47478 | 34.05762 | 35088 ft | 498 kts | 140° |
| 2026-05-05 11:45 | 32.43245 | 34.10789 | 35085 ft | 488 kts | 148° |
| 2026-05-05 11:45 | 32.40599 | 34.12946 | 35082 ft | 474 kts | 160° |
| 2026-05-05 11:46 | 32.37555 | 34.14886 | 35084 ft | 473 kts | 158° |
| 2026-05-05 11:46 | 32.34687 | 34.17258 | 35055 ft | 483 kts | 147° |
| 2026-05-05 11:46 | 32.32349 | 34.20177 | 35040 ft | 498 kts | 133° |
| 2026-05-05 11:46 | 32.30591 | 34.23691 | 35070 ft | 508 kts | 121° |
| 2026-05-05 11:47 | 32.29177 | 34.27238 | 35056 ft | 511 kts | 119° |
| 2026-05-05 11:47 | 32.27606 | 34.31314 | 34742 ft | 510 kts | 119° |
| 2026-05-05 11:47 | 32.26088 | 34.35096 | 34442 ft | 509 kts | 121° |
| 2026-05-05 11:47 | 32.24471 | 34.38872 | 34209 ft | 509 kts | 122° |
| 2026-05-05 11:48 | 32.21171 | 34.46312 | 33632 ft | 511 kts | 122° |
| 2026-05-05 11:48 | 32.19549 | 34.50054 | 33020 ft | 512 kts | 121° |
| 2026-05-05 11:48 | 32.17948 | 34.53820 | 32290 ft | 516 kts | 120° |
| 2026-05-05 11:49 | 32.16493 | 34.57892 | 31561 ft | 521 kts | 110° |
| 2026-05-05 11:49 | 32.15614 | 34.62068 | 30929 ft | 523 kts | 104° |
| 2026-05-05 11:49 | 32.14908 | 34.66319 | 30260 ft | 522 kts | 102° |
| 2026-05-05 11:49 | 32.14229 | 34.70827 | 29524 ft | 521 kts | 101° |
| 2026-05-05 11:50 | 32.13778 | 34.73842 | 29034 ft | 519 kts | 102° |
| 2026-05-05 11:50 | 32.13124 | 34.78066 | 28413 ft | 514 kts | 102° |
| 2026-05-05 11:50 | 32.12396 | 34.82402 | 27775 ft | 508 kts | 103° |
| 2026-05-05 11:50 | 32.11682 | 34.86464 | 27150 ft | 503 kts | 103° |
| 2026-05-05 11:51 | 32.10899 | 34.90520 | 26509 ft | 497 kts | 108° |
| 2026-05-05 11:51 | 32.09828 | 34.94518 | 26026 ft | 489 kts | 110° |
| 2026-05-05 11:51 | 32.08747 | 34.98369 | 25323 ft | 486 kts | 110° |
| 2026-05-05 11:51 | 32.07675 | 35.02058 | 24703 ft | 481 kts | 111° |
| 2026-05-05 11:52 | 32.06585 | 35.05751 | 24125 ft | 469 kts | 111° |
| 2026-05-05 11:52 | 32.05475 | 35.09536 | 23398 ft | 462 kts | 111° |
| 2026-05-05 11:52 | 32.04402 | 35.13256 | 22739 ft | 453 kts | 110° |
| 2026-05-05 11:52 | 32.03409 | 35.16733 | 22117 ft | 446 kts | 110° |
| 2026-05-05 11:53 | 32.02428 | 35.20182 | 21515 ft | 439 kts | 111° |
| 2026-05-05 11:53 | 32.01452 | 35.23579 | 20944 ft | 436 kts | 111° |
| 2026-05-05 11:53 | 32.00404 | 35.27136 | 20363 ft | 433 kts | 112° |
| 2026-05-05 11:53 | 31.99432 | 35.30446 | 19813 ft | 431 kts | 111° |
| 2026-05-05 11:54 | 31.98467 | 35.33812 | 19241 ft | 429 kts | 111° |
| 2026-05-05 11:54 | 31.97525 | 35.37132 | 18684 ft | 426 kts | 111° |
| 2026-05-05 11:54 | 31.96585 | 35.40430 | 18156 ft | 422 kts | 111° |
| 2026-05-05 11:54 | 31.95649 | 35.43683 | 17633 ft | 418 kts | 111° |
| 2026-05-05 11:55 | 31.94723 | 35.46872 | 17070 ft | 415 kts | 111° |
| 2026-05-05 11:55 | 31.93794 | 35.50080 | 16524 ft | 412 kts | 110° |
| 2026-05-05 11:55 | 31.93318 | 35.52291 | 16141 ft | 412 kts | 101° |
| 2026-05-05 11:55 | 31.92903 | 35.55612 | 15627 ft | 408 kts | 104° |
| 2026-05-05 11:56 | 31.91905 | 35.58889 | 15067 ft | 400 kts | 118° |
| 2026-05-05 11:56 | 31.90602 | 35.61851 | 14519 ft | 396 kts | 121° |
| 2026-05-05 11:56 | 31.89316 | 35.64675 | 13963 ft | 393 kts | 120° |
| 2026-05-05 11:56 | 31.88106 | 35.67544 | 13425 ft | 391 kts | 117° |
| 2026-05-05 11:57 | 31.86996 | 35.70445 | 12910 ft | 387 kts | 115° |
| 2026-05-05 11:57 | 31.85913 | 35.73420 | 12391 ft | 383 kts | 115° |
| 2026-05-05 11:57 | 31.84846 | 35.76330 | 11842 ft | 380 kts | 115° |
| 2026-05-05 11:57 | 31.83801 | 35.79124 | 11323 ft | 376 kts | 116° |
| 2026-05-05 11:58 | 31.82735 | 35.81910 | 10847 ft | 371 kts | 116° |
| 2026-05-05 11:58 | 31.81961 | 35.84800 | 10319 ft | 371 kts | 98° |
| 2026-05-05 11:58 | 31.82013 | 35.87793 | 10039 ft | 360 kts | 83° |
| 2026-05-05 11:58 | 31.82385 | 35.90722 | 9927 ft | 346 kts | 80° |
| 2026-05-05 11:59 | 31.82803 | 35.93539 | 9798 ft | 334 kts | 80° |
| 2026-05-05 11:59 | 31.83170 | 35.96197 | 9630 ft | 324 kts | 82° |
| 2026-05-05 11:59 | 31.83476 | 35.98758 | 9443 ft | 310 kts | 83° |
| 2026-05-05 11:59 | 31.83731 | 36.01189 | 9261 ft | 298 kts | 84° |
| 2026-05-05 12:00 | 31.83976 | 36.03621 | 8943 ft | 293 kts | 84° |
| 2026-05-05 12:00 | 31.84232 | 36.05968 | 8767 ft | 285 kts | 83° |
| 2026-05-05 12:00 | 31.84485 | 36.08208 | 8550 ft | 276 kts | 83° |
| 2026-05-05 12:00 | 31.84743 | 36.10480 | 8088 ft | 277 kts | 83° |
| 2026-05-05 12:01 | 31.84989 | 36.12738 | 7617 ft | 279 kts | 83° |
| 2026-05-05 12:01 | 31.85228 | 36.14975 | 7177 ft | 279 kts | 83° |
| 2026-05-05 12:01 | 31.85475 | 36.17232 | 6754 ft | 277 kts | 83° |
| 2026-05-05 12:01 | 31.85656 | 36.19462 | 6478 ft | 268 kts | 94° |
| 2026-05-05 12:02 | 31.85212 | 36.21514 | 6215 ft | 253 kts | 126° |
| 2026-05-05 12:02 | 31.84030 | 36.22889 | 5971 ft | 232 kts | 159° |
| 2026-05-05 12:02 | 31.82541 | 36.23280 | 5731 ft | 212 kts | 187° |
| 2026-05-05 12:02 | 31.81141 | 36.22984 | 5548 ft | 201 kts | 201° |
| 2026-05-05 12:03 | 31.79820 | 36.22505 | 5332 ft | 197 kts | 201° |
| 2026-05-05 12:03 | 31.78528 | 36.22022 | 5287 ft | 195 kts | 203° |
| 2026-05-05 12:03 | 31.77246 | 36.21518 | 5317 ft | 195 kts | 206° |
| 2026-05-05 12:03 | 31.76213 | 36.20582 | 5293 ft | 188 kts | 240° |
| 2026-05-05 12:04 | 31.75825 | 36.19133 | 5315 ft | 188 kts | 260° |
| 2026-05-05 12:04 | 31.75632 | 36.17616 | 5214 ft | 187 kts | 261° |
| 2026-05-05 12:04 | 31.75431 | 36.16097 | 4999 ft | 183 kts | 260° |
| 2026-05-05 12:04 | 31.75217 | 36.14654 | 4802 ft | 177 kts | 259° |
| 2026-05-05 12:05 | 31.75012 | 36.13265 | 4566 ft | 173 kts | 260° |
| 2026-05-05 12:05 | 31.74816 | 36.11888 | 4320 ft | 167 kts | 259° |
| 2026-05-05 12:05 | 31.74628 | 36.10574 | 4092 ft | 155 kts | 260° |
| 2026-05-05 12:05 | 31.74461 | 36.09404 | 3897 ft | 137 kts | 259° |
| 2026-05-05 12:06 | 31.74308 | 36.08339 | 3727 ft | 129 kts | 259° |
| 2026-05-05 12:06 | 31.74160 | 36.07311 | 3552 ft | 129 kts | 259° |
| 2026-05-05 12:06 | 31.74009 | 36.06261 | 3374 ft | 129 kts | 259° |
| 2026-05-05 12:06 | 31.73862 | 36.05234 | 3201 ft | 129 kts | 259° |
| 2026-05-05 12:07 | 31.73714 | 36.04201 | 3051 ft | 129 kts | 259° |
| 2026-05-05 12:07 | 31.73566 | 36.03170 | 2867 ft | 127 kts | 259° |
| 2026-05-05 12:07 | 31.73418 | 36.02145 | 2687 ft | 127 kts | 259° |
| 2026-05-05 12:07 | 31.73272 | 36.01123 | 2521 ft | 127 kts | 259° |
| 2026-05-05 12:08 | 31.73127 | 36.00122 | 2412 ft | 117 kts | 260° |
| 2026-05-05 12:08 | 31.73011 | 35.99327 | 2411 ft | 70 kts | 262° |
| 2026-05-05 12:08 | 31.72947 | 35.98866 | 2411 ft | 53 kts | 260° |
| 2026-05-05 12:08 | 31.72887 | 35.98466 | 2411 ft | 47 kts | 260° |
| 2026-05-05 12:09 | 31.72848 | 35.98224 | 2411 ft | 18 kts | 257° |
| 2026-05-05 12:09 | 31.72834 | 35.98166 | 2411 ft | 2 kts | 207° |
| 2026-05-05 12:09 | 31.72820 | 35.98176 | 2411 ft | 4 kts | 146° |
| 2026-05-05 12:09 | 31.72783 | 35.98196 | 2411 ft | 8 kts | 161° |
| 2026-05-05 12:10 | 31.72718 | 35.98211 | 2411 ft | 11 kts | 171° |
| 2026-05-05 12:10 | 31.72664 | 35.98221 | 2411 ft | 13 kts | 171° |
| 2026-05-05 12:10 | 31.72586 | 35.98249 | 2411 ft | 5 kts | 110° |
| 2026-05-05 12:10 | 31.72584 | 35.98278 | 2411 ft | 6 kts | 75° |
| 2026-05-05 12:11 | 31.72592 | 35.98335 | 2411 ft | 9 kts | 81° |
| 2026-05-05 12:11 | 31.72602 | 35.98415 | 2411 ft | 11 kts | 82° |
| 2026-05-05 12:11 | 31.72619 | 35.98518 | 2411 ft | 14 kts | 77° |
| 2026-05-05 12:11 | 31.72635 | 35.98628 | 2411 ft | 14 kts | 82° |
| 2026-05-05 12:12 | 31.72652 | 35.98749 | 2411 ft | 13 kts | 80° |
| 2026-05-05 12:12 | 31.72667 | 35.98856 | 2411 ft | 9 kts | 81° |
| 2026-05-05 12:12 | 31.72660 | 35.98884 | 2411 ft | 4 kts | 132° |
| 2026-05-05 12:12 | 31.72623 | 35.98902 | 2411 ft | 7 kts | 172° |
| 2026-05-05 12:13 | 31.72560 | 35.98911 | 2411 ft | 10 kts | 184° |
| 2026-05-05 12:13 | 31.72512 | 35.98861 | 2411 ft | 10 kts | 259° |
| 2026-05-05 12:13 | 31.72498 | 35.98767 | 2411 ft | 13 kts | 261° |
| 2026-05-05 12:13 | 31.72484 | 35.98660 | 2411 ft | 8 kts | 261° |
| 2026-05-05 12:14 | 31.72487 | 35.98638 | 2411 ft | 3 kts | 317° |
| 2026-05-05 12:14 | 31.72500 | 35.98632 | 2411 ft | 2 kts | 349° |
| 2026-05-05 12:14 | 31.72523 | 35.98627 | 2411 ft | 5 kts | 351° |
| 2026-05-05 12:14 | 31.72536 | 35.98624 | 2411 ft | 1 kts | 351° |
| 2026-05-05 12:15 | 31.72540 | 35.98623 | 2411 ft | 0 kts | 351° |